• Join FlightAware (Why Join?)
  • Login
  • US Flag 
06:18PM EDT


 

Airport Tracker/Info


-or-


 

Live Flight TrackerFlight Track Log ✈ N703RM ✈ 17-Oct-2013 ✈ KHEF - KRDU

Flight Track Log - Related Links

Times and Time Zones

All times are in EDT time to prevent confusion due to time zone crossing. See the N703RM flight status page for this flight to view local times or setup timezone preferences in your user account.

Time Position Orientation Groundspeed Altitude Reporting Facility
EDT Latitude Longitude Course Direction KTS MPH feet Rate Location/Type
02:55PM 38.6667 -77.5167 231° Southwest 177 204 2,000  Level Potomac TRACON
02:56PM 38.6667 -77.5667 270° West 188 216 3,400 1,380 Climbing Potomac TRACON
02:57PM 38.6536 -77.6731 261° West 197 227 5,700 1,440 Climbing Washington Center
02:58PM 38.6483 -77.7369 264° West 192 221 7,100 1,260 Climbing Washington Center
02:59PM 38.6428 -77.8031 264° West 192 221 8,300 1,140 Climbing Washington Center
03:00PM 38.3839 -77.6714 231° Southwest  Level Estimated
03:00PM 38.6356 -77.8694 262° West 192 221 9,500  Level Washington Center
03:01PM 38.6072 -77.9217 235° Southwest 191 220 10,800 1,260 Climbing Washington Center
03:02PM 38.5769 -77.9764 235° Southwest 186 214 12,000 1,080 Climbing Washington Center
03:03PM 38.5447 -78.0286 232° Southwest 192 221 13,200 1,140 Climbing Washington Center
03:04PM 38.5103 -78.0883 234° Southwest 192 221 14,600 1,200 Climbing Washington Center
03:05PM 38.4800 -78.1378 232° Southwest 187 215 15,700 660 Climbing Washington Center
03:06PM 38.4494 -78.1925 235° Southwest 187 215 16,000 120 Climbing Washington Center
03:07PM 38.4128 -78.2522 232° Southwest 200 230 16,000  Level Washington Center
03:08PM 38.3781 -78.3144 235° Southwest 213 245 16,000  Level Washington Center
03:09PM 38.3231 -78.3522 208° Southwest 219 252 16,000  Level Washington Center
03:10PM 38.2619 -78.3764 197° South 226 260 16,000  Level Washington Center
03:11PM 38.2136 -78.3956 197° South 233 268 16,000  Level Washington Center
03:12PM 38.1356 -78.4269 198° South 239 275 16,000  Level Washington Center
03:13PM 38.0808 -78.4514 199° South 239 275 16,000  Level Washington Center
03:14PM 38.0114 -78.4778 197° South 239 275 16,000  Level Washington Center
03:15PM 37.9503 -78.5069 201° Southwest 233 268 16,000  Level Washington Center
03:16PM 37.8892 -78.5308 197° South 233 268 16,000  Level Washington Center
03:17PM 37.8258 -78.5572 198° South 233 268 16,000  Level Washington Center
03:18PM 37.7775 -78.5764 197° South 233 268 16,000  Level Washington Center
03:19PM 37.6994 -78.6050 196° South 233 268 16,000  Level Washington Center
03:20PM 37.6406 -78.6314 200° South 239 275 16,000  Level Washington Center
03:21PM 37.5772 -78.6550 196° South 244 281 16,000  Level Washington Center
03:22PM 37.5142 -78.6814 198° South 249 287 16,000  Level Washington Center
03:23PM 37.4508 -78.7050 196° South 249 287 16,000  Level Washington Center
03:24PM 37.3814 -78.7333 198° South 249 287 16,000  Level Washington Center
03:25PM 37.3158 -78.7594 198° South 249 287 16,000  Level Washington Center
03:26PM 37.2525 -78.7856 198° South 249 287 16,000  Level Washington Center
03:27PM 37.1872 -78.8117 198° South 249 287 16,000  Level Washington Center
03:28PM 37.1303 -78.8353 198° South 249 287 16,000  Level Washington Center
03:29PM 37.0669 -78.8611 198° South 249 287 16,000  Level Washington Center
03:30PM 37.0017 -78.8844 196° South 249 287 16,000 -120 Level Washington Center
03:31PM 36.9364 -78.9075 196° South 249 287 15,800 -720 Descending Washington Center
03:32PM 36.8614 -78.9017 176° South 254 292 14,600 -1,560 Descending Washington Center
03:33PM 36.7803 -78.8931 175° South 269 310 12,800 -1,680 Descending Washington Center
03:34PM 36.7056 -78.8822 173° South 274 315 11,300 -1,560 Descending Washington Center
03:35PM 36.6264 -78.8761 176° South 268 308 9,600 -1,560 Descending Washington Center
03:36PM 36.5742 -78.8742 178° South 267 307 8,500 -1,320 Descending Washington Center
03:36PM 36.5639 -78.8711 167° South 274 315 8,400 -1,800 Descending Washington Center
03:37PM 36.4911 -78.8603 173° South 260 299 6,600 -1,800 Descending Washington Center
03:37PM 36.4933 -78.8628 318° Northwest 274 315 6,700 -540 Climbing Washington Center
03:38PM 36.4225 -78.8547 175° South 269 310 6,000 -360 Descending Washington Center
03:39PM 36.3478 -78.8439 173° South 251 289 6,000 -420 Level Washington Center
03:40PM 36.2917 -78.8364 174° South 244 281 5,200 -960 Descending Washington Center
03:40PM 36.2769 -78.8358 178° South 240 276 5,000 -1,140 Descending Washington Center
03:41PM 36.2169 -78.8128 163° South 249 287 4,100 -900 Descending Washington Center
03:41PM 36.2131 -78.8100 150° Southeast 262 302 4,100  Level Washington Center
03:42PM 36.1744 -78.7647 137° Southeast 251 289 4,100  Level Washington Center
03:42PM 36.1686 -78.7567 132° Southeast 241 277 4,100 -120 Level Washington Center
03:43PM 36.1239 -78.7061 138° Southeast 241 277 4,000 -60 Descending Washington Center
03:44PM 36.0753 -78.6503 137° Southeast 246 283 4,000  Level Washington Center
03:44PM 36.0692 -78.6422 133° Southeast 227 261 4,000 -900 Level Washington Center
03:45PM 36.0306 -78.6047 142° Southeast 228 262 3,100 -1,020 Descending Washington Center
03:45PM 36.0222 -78.6069 192° South 184 212 3,000 -360 Descending Washington Center
03:46PM 35.9878 -78.6494 225° Southwest 161 185 2,700 -240 Descending Washington Center
03:48PM 35.9492 -78.6914 221° Southwest 161 185 2,500 -420 Descending Washington Center
03:48PM 35.9231 -78.7289 229° Southwest 159 183 1,900 -780 Descending Washington Center
03:50PM 35.8931 -78.7586 219° Southwest 125 144 1,000 -840 Descending Washington Center
03:52PM 35.8667 -78.7833 225° Southwest  Level FlightAware Approximate
03:59PM 35.8776 -78.7875 225° Southwest  Level Estimated